createdAt,value
2023-05-14T00:02:18.194Z,96158.75
2023-05-14T00:04:50.936Z,96158.19
2023-05-14T00:07:23.681Z,96149.59
2023-05-14T00:09:56.531Z,96152.94
2023-05-14T00:12:30.819Z,96152.84
2023-05-14T00:15:03.961Z,96151.94
2023-05-14T00:17:37.122Z,96152.59
2023-05-14T00:20:12.212Z,96142.25
2023-05-14T00:22:44.932Z,96148.72
2023-05-14T00:25:17.887Z,96139.13
2023-05-14T00:27:52.233Z,96137.56
2023-05-14T00:30:25.235Z,96134.88
2023-05-14T00:32:58.138Z,96138.81
2023-05-14T00:35:30.836Z,96137.69
2023-05-14T00:38:03.776Z,96135.78
2023-05-14T00:40:36.632Z,96140.78
2023-05-14T00:43:10.955Z,96140.78
2023-05-14T00:45:43.917Z,96132.88
2023-05-14T00:48:16.662Z,96131.44
2023-05-14T00:50:50.654Z,96129.63
2023-05-14T00:53:23.489Z,96126.75
2023-05-14T00:55:56.218Z,96138.44
2023-05-14T00:58:30.698Z,96137.44
2023-05-14T01:01:03.890Z,96141.44
2023-05-14T01:03:37.504Z,96138.88
2023-05-14T01:06:13.547Z,96131.03
2023-05-14T01:08:51.840Z,96130.81
2023-05-14T01:11:27.178Z,96122.88
2023-05-14T01:14:04.612Z,96126.91
2023-05-14T01:16:38.302Z,96130.00
2023-05-14T01:19:18.620Z,96127.44
2023-05-14T01:21:52.869Z,96126.31
2023-05-14T01:24:25.578Z,96135.22
2023-05-14T01:27:02.898Z,96135.66
2023-05-14T01:29:38.931Z,96129.63
2023-05-14T01:32:11.740Z,96130.84
2023-05-14T01:34:45.860Z,96128.72
2023-05-14T01:37:20.360Z,96120.44
2023-05-14T01:39:53.344Z,96122.50
2023-05-14T01:42:26.570Z,96125.41
2023-05-14T01:44:59.590Z,96115.22
2023-05-14T01:47:32.404Z,96111.63
2023-05-14T01:50:05.570Z,96108.34
2023-05-14T01:52:39.750Z,96113.91
2023-05-14T01:55:12.445Z,96103.72
2023-05-14T01:57:45.195Z,96112.28
2023-05-14T02:00:18.178Z,96109.78
2023-05-14T02:02:51.105Z,96109.53
2023-05-14T02:05:23.955Z,96109.25
2023-05-14T02:07:58.285Z,96109.81
2023-05-14T02:10:31.031Z,96110.66
2023-05-14T02:13:04.157Z,96112.66
2023-05-14T02:15:36.891Z,96102.09
2023-05-14T02:18:09.774Z,96101.41
2023-05-14T02:20:43.014Z,96093.41
2023-05-14T02:23:17.184Z,96092.72
2023-05-14T02:25:49.996Z,96095.84
2023-05-14T02:28:22.781Z,96090.56
2023-05-14T02:30:59.580Z,96095.91
2023-05-14T02:33:32.363Z,96092.09
2023-05-14T02:36:05.122Z,96096.78
2023-05-14T02:38:39.430Z,96085.69
2023-05-14T02:41:12.179Z,96078.41
2023-05-14T02:43:44.942Z,96076.94
2023-05-14T02:46:17.710Z,96087.34
2023-05-14T02:48:50.530Z,96075.47
2023-05-14T02:51:23.700Z,96080.13
2023-05-14T02:53:57.936Z,96087.06
2023-05-14T02:56:30.655Z,96077.53
2023-05-14T02:59:03.352Z,96076.06
2023-05-14T03:01:36.528Z,96068.00
2023-05-14T03:04:09.841Z,96071.13
2023-05-14T03:06:42.896Z,96075.34
2023-05-14T03:09:17.152Z,96069.97
2023-05-14T03:11:51.507Z,96067.72
2023-05-14T03:14:24.399Z,96073.88
2023-05-14T03:16:57.231Z,96075.78
2023-05-14T03:19:29.990Z,96078.13
2023-05-14T03:22:02.673Z,96066.25
2023-05-14T03:24:39.004Z,96077.44
2023-05-14T03:27:11.831Z,96073.63
2023-05-14T03:29:44.498Z,96070.94
2023-05-14T03:32:17.185Z,96068.25
2023-05-14T03:34:49.904Z,96064.41
2023-05-14T03:37:22.681Z,96071.34
2023-05-14T03:39:56.823Z,96067.53
2023-05-14T03:42:29.559Z,96072.56
2023-05-14T03:45:02.209Z,96062.94
2023-05-14T03:47:35.092Z,96074.91
2023-05-14T03:50:08.631Z,96073.78
2023-05-14T03:52:41.610Z,96065.72
2023-05-14T03:55:15.679Z,96061.91
2023-05-14T03:57:49.072Z,96065.00
2023-05-14T04:00:22.036Z,96054.25
2023-05-14T04:02:55.122Z,96050.78
2023-05-14T04:05:27.917Z,96049.25
2023-05-14T04:08:00.938Z,96055.75
2023-05-14T04:10:35.404Z,96066.50
2023-05-14T04:13:08.065Z,96071.88
2023-05-14T04:15:40.819Z,96065.28
2023-05-14T04:18:14.079Z,96058.69
2023-05-14T04:20:46.759Z,96060.97
2023-05-14T04:23:19.802Z,96061.66
2023-05-14T04:25:53.920Z,96059.31
2023-05-14T04:28:26.820Z,96066.59
2023-05-14T04:30:59.474Z,96062.78
2023-05-14T04:33:32.500Z,96065.47
2023-05-14T04:36:05.790Z,96071.63
2023-05-14T04:38:38.532Z,96075.16
2023-05-14T04:41:12.596Z,96077.16
2023-05-14T04:43:46.074Z,96071.09
2023-05-14T04:46:19.340Z,96067.69
2023-05-14T04:48:52.091Z,96067.09
2023-05-14T04:51:24.768Z,96082.94
2023-05-14T04:53:57.616Z,96071.88
2023-05-14T04:56:31.820Z,96070.50
2023-05-14T04:59:04.559Z,96075.22
2023-05-14T05:01:37.444Z,96083.78
2023-05-14T05:04:10.346Z,96079.28
2023-05-14T05:06:43.127Z,96083.22
2023-05-14T05:09:16.401Z,96083.31
2023-05-14T05:11:50.562Z,96074.16
2023-05-14T05:14:23.351Z,96086.91
2023-05-14T05:16:56.116Z,96083.56
2023-05-14T05:19:39.758Z,96085.13
2023-05-14T05:22:16.553Z,96088.28
2023-05-14T05:24:50.089Z,96081.88
2023-05-14T05:27:24.272Z,96083.47
2023-05-14T05:29:57.598Z,96080.50
2023-05-14T05:32:30.752Z,96075.97
2023-05-14T05:35:03.682Z,96074.53
2023-05-14T05:37:36.418Z,96072.31
2023-05-14T05:40:11.012Z,96072.38
2023-05-14T05:42:45.423Z,96077.13
2023-05-14T05:45:18.137Z,96079.94
2023-05-14T05:47:50.910Z,96086.59
2023-05-14T05:50:23.851Z,96083.22
2023-05-14T05:52:56.666Z,96085.63
2023-05-14T05:55:29.600Z,96088.78
2023-05-14T05:58:03.657Z,96086.94
2023-05-14T06:00:36.393Z,96083.50
2023-05-14T06:03:09.465Z,96082.03
2023-05-14T06:05:42.294Z,96081.31
2023-05-14T06:08:15.087Z,96079.44
2023-05-14T06:10:48.029Z,96078.38
2023-05-14T06:13:22.224Z,96077.28
2023-05-14T06:15:54.951Z,96078.53
2023-05-14T06:18:27.663Z,96078.63
2023-05-14T06:21:00.864Z,96082.91
2023-05-14T06:23:33.575Z,96089.53
2023-05-14T06:26:06.634Z,96081.53
2023-05-14T06:28:40.733Z,96082.75
2023-05-14T06:31:13.769Z,96086.63
2023-05-14T06:33:46.506Z,96082.81
2023-05-14T06:36:19.229Z,96092.88
2023-05-14T06:38:51.961Z,96082.47
2023-05-14T06:41:24.799Z,96087.16
2023-05-14T06:43:59.027Z,96089.47
2023-05-14T06:46:31.823Z,96078.34
2023-05-14T06:49:04.787Z,96083.34
2023-05-14T06:51:39.643Z,96088.78
2023-05-14T06:54:12.367Z,96092.69
2023-05-14T06:56:45.106Z,96089.63
2023-05-14T06:59:19.859Z,96090.06
2023-05-14T07:01:53.196Z,96087.78
2023-05-14T07:04:26.039Z,96080.47
2023-05-14T07:06:59.033Z,96084.00
2023-05-14T07:09:32.070Z,96084.03
2023-05-14T07:12:05.946Z,96081.38
2023-05-14T07:14:40.334Z,96081.03
2023-05-14T07:17:13.253Z,96080.75
2023-05-14T07:19:47.322Z,96084.25
2023-05-14T07:22:20.535Z,96073.09
2023-05-14T07:24:53.521Z,96076.97
2023-05-14T07:27:26.445Z,96076.63
2023-05-14T07:30:00.780Z,96074.66
2023-05-14T07:32:33.947Z,96070.06
2023-05-14T07:35:07.775Z,96071.97
2023-05-14T07:37:41.122Z,96068.53
2023-05-14T07:40:14.582Z,96079.34
2023-05-14T07:42:48.883Z,96071.59
2023-05-14T07:45:23.414Z,96067.00
2023-05-14T07:47:56.357Z,96071.25
2023-05-14T07:50:29.070Z,96067.41
2023-05-14T07:53:01.834Z,96058.94
2023-05-14T07:55:34.633Z,96069.38
2023-05-14T07:58:07.560Z,96079.78
2023-05-14T08:00:42.145Z,96061.28
2023-05-14T08:03:15.480Z,96067.06
2023-05-14T08:05:48.369Z,96068.25
2023-05-14T08:08:21.997Z,96064.84
2023-05-14T08:10:54.782Z,96061.00
2023-05-14T08:13:27.746Z,96056.84
2023-05-14T08:16:02.653Z,96052.31
2023-05-14T08:18:35.472Z,96055.47
2023-05-14T08:21:08.586Z,96048.22
2023-05-14T08:23:41.761Z,96049.88
2023-05-14T08:26:14.491Z,96044.25
2023-05-14T08:28:47.578Z,96054.34
2023-05-14T08:31:21.761Z,96049.81
2023-05-14T08:33:55.111Z,96051.81
2023-05-14T08:36:28.169Z,96046.09
2023-05-14T08:39:01.679Z,96053.47
2023-05-14T08:41:34.555Z,96044.63
2023-05-14T08:44:09.430Z,96047.00
2023-05-14T08:46:43.649Z,96045.88
2023-05-14T08:49:23.172Z,96047.13
2023-05-14T08:51:56.197Z,96045.63
2023-05-14T08:54:30.064Z,96048.75
2023-05-14T08:57:04.162Z,96048.00
2023-05-14T08:59:36.943Z,96048.03
2023-05-14T09:02:12.398Z,96043.38
2023-05-14T09:04:46.060Z,96040.69
2023-05-14T09:07:18.818Z,96037.97
2023-05-14T09:09:52.808Z,96044.88
2023-05-14T09:12:25.724Z,96044.44
2023-05-14T09:14:59.363Z,96045.09
2023-05-14T09:17:35.916Z,96044.63
2023-05-14T09:20:10.685Z,96043.75
2023-05-14T09:22:44.067Z,96038.69
2023-05-14T09:25:17.440Z,96035.13
2023-05-14T09:27:55.363Z,96030.47
2023-05-14T09:30:30.464Z,96030.47
2023-05-14T09:33:07.937Z,96036.25
2023-05-14T09:35:43.489Z,96028.19
2023-05-14T09:38:17.014Z,96031.69
2023-05-14T09:40:50.402Z,96030.59
2023-05-14T09:43:23.352Z,96022.16
2023-05-14T09:45:56.589Z,96024.88
2023-05-14T09:48:31.714Z,96024.94
2023-05-14T09:51:05.794Z,96015.75
2023-05-14T09:53:39.306Z,96015.41
2023-05-14T09:56:12.570Z,96014.34
2023-05-14T09:58:45.840Z,96009.75
2023-05-14T10:01:20.442Z,96008.63
2023-05-14T10:03:55.193Z,96004.00
2023-05-14T10:06:29.922Z,96004.44
2023-05-14T10:09:04.190Z,96002.91
2023-05-14T10:11:39.317Z,96012.56
2023-05-14T10:14:18.051Z,95999.38
2023-05-14T10:16:52.051Z,95996.66
2023-05-14T10:19:27.515Z,96001.69
2023-05-14T10:22:04.440Z,96005.16
2023-05-14T10:24:39.066Z,96004.34
2023-05-14T10:27:12.075Z,96007.84
2023-05-14T10:29:49.479Z,96002.41
2023-05-14T10:32:23.820Z,95990.00
2023-05-14T10:34:59.492Z,95999.69
2023-05-14T10:37:32.184Z,95998.53
2023-05-14T10:40:06.409Z,95995.84
2023-05-14T10:42:41.020Z,96002.44
2023-05-14T10:45:14.702Z,96006.31
2023-05-14T10:47:48.224Z,95992.00
2023-05-14T10:50:23.861Z,95996.31
2023-05-14T10:52:57.770Z,95990.91
2023-05-14T10:55:31.124Z,95992.84
2023-05-14T10:58:05.472Z,95989.34
2023-05-14T11:00:38.630Z,95982.75
2023-05-14T11:03:13.269Z,95985.06
2023-05-14T11:05:48.052Z,95977.31
2023-05-14T11:08:23.936Z,95981.53
2023-05-14T11:10:59.037Z,95983.47
2023-05-14T11:13:33.096Z,95979.19
2023-05-14T11:18:42.309Z,95973.00
2023-05-14T11:21:17.931Z,95966.06
2023-05-14T11:23:51.155Z,95962.22
2023-05-14T11:26:24.808Z,95963.00
2023-05-14T11:28:57.776Z,95957.19
2023-05-14T11:31:31.463Z,95952.19
2023-05-14T11:34:07.292Z,95957.63
2023-05-14T11:36:42.313Z,95956.84
2023-05-14T11:39:19.371Z,95956.09
2023-05-14T11:41:52.604Z,95957.25
2023-05-14T11:44:25.743Z,95951.03
2023-05-14T11:46:59.382Z,95947.47
2023-05-14T11:49:33.393Z,95948.97
2023-05-14T11:52:08.984Z,95945.09
2023-05-14T11:54:42.892Z,95948.13
2023-05-14T11:57:17.755Z,95944.63
2023-05-14T11:59:51.085Z,95935.75
2023-05-14T12:02:24.557Z,95932.31
2023-05-14T12:04:57.834Z,95941.22
2023-05-14T12:07:32.962Z,95943.59
2023-05-14T12:10:06.714Z,95949.06
2023-05-14T12:12:40.064Z,95939.81
2023-05-14T12:15:14.206Z,95937.53
2023-05-14T12:17:52.150Z,95941.75
2023-05-14T12:20:26.740Z,95946.41
2023-05-14T12:23:01.529Z,95947.16
2023-05-14T12:25:34.696Z,95941.75
2023-05-14T12:28:15.805Z,95942.47
2023-05-14T12:30:49.257Z,95940.50
2023-05-14T12:33:24.166Z,95933.47
2023-05-14T12:36:07.337Z,95925.72
2023-05-14T12:38:49.889Z,95926.09
2023-05-14T12:41:23.165Z,95918.41
2023-05-14T12:43:56.379Z,95911.06
2023-05-14T12:46:29.711Z,95909.53
2023-05-14T12:49:03.347Z,95912.69
2023-05-14T12:51:36.791Z,95912.72
2023-05-14T12:54:13.133Z,95916.22
2023-05-14T12:56:46.294Z,95913.53
2023-05-14T12:59:19.806Z,95915.47
2023-05-14T13:01:53.377Z,95907.34
2023-05-14T13:04:27.358Z,95898.47
2023-05-14T13:07:01.756Z,95904.28
2023-05-14T13:09:36.823Z,95894.19
2023-05-14T13:12:10.305Z,95891.88
2023-05-14T13:14:43.590Z,95892.59
2023-05-14T13:17:16.922Z,95891.75
2023-05-14T13:19:50.146Z,95888.56
2023-05-14T13:22:23.053Z,95888.50
2023-05-14T13:24:58.118Z,95885.31
2023-05-14T13:27:31.335Z,95889.13
2023-05-14T13:30:04.511Z,95879.75
2023-05-14T13:32:37.539Z,95875.44
2023-05-14T13:35:11.223Z,95877.75
2023-05-14T13:37:44.842Z,95876.94
2023-05-14T13:40:19.680Z,95877.31
2023-05-14T13:42:52.562Z,95879.63
2023-05-14T13:45:25.873Z,95875.00
2023-05-14T13:47:58.825Z,95866.84
2023-05-14T13:50:31.690Z,95870.34
2023-05-14T13:53:04.616Z,95869.94
2023-05-14T13:55:38.854Z,95874.97
2023-05-14T13:58:11.655Z,95863.34
2023-05-14T14:00:44.429Z,95857.16
2023-05-14T14:03:17.269Z,95864.13
2023-05-14T14:05:50.206Z,95855.22
2023-05-14T14:08:24.279Z,95857.22
2023-05-14T14:10:58.591Z,95858.84
2023-05-14T14:13:31.319Z,95867.09
2023-05-14T14:16:04.534Z,95869.09
2023-05-14T14:18:37.730Z,95866.81
2023-05-14T14:21:10.588Z,95857.97
2023-05-14T14:23:43.269Z,95858.41
2023-05-14T14:26:17.335Z,95861.91
2023-05-14T14:28:50.093Z,95856.91
2023-05-14T14:31:22.918Z,95862.00
2023-05-14T14:33:55.610Z,95859.66
2023-05-14T14:36:29.197Z,95862.41
2023-05-14T14:39:01.958Z,95860.47
2023-05-14T14:41:36.015Z,95859.31
2023-05-14T14:44:09.386Z,95859.34
2023-05-14T14:46:42.926Z,95862.44
2023-05-14T14:49:15.702Z,95866.31
2023-05-14T14:51:48.440Z,95855.47
2023-05-14T14:54:21.598Z,95859.34
2023-05-14T14:56:55.936Z,95851.59
2023-05-14T14:59:29.058Z,95855.44
2023-05-14T15:02:01.795Z,95850.78
2023-05-14T15:04:35.061Z,95853.13
2023-05-14T15:07:07.866Z,95855.44
2023-05-14T15:09:40.741Z,95854.66
2023-05-14T15:12:15.039Z,95854.63
2023-05-14T15:14:47.879Z,95867.00
2023-05-14T15:17:20.726Z,95868.53
2023-05-14T15:19:53.796Z,95876.63
2023-05-14T15:22:26.460Z,95872.75
2023-05-14T15:24:59.211Z,95871.97
2023-05-14T15:27:33.262Z,95874.34
2023-05-14T15:30:06.624Z,95884.81
2023-05-14T15:32:39.362Z,95891.03
2023-05-14T15:35:12.504Z,95891.44
2023-05-14T15:37:45.659Z,95895.72
2023-05-14T15:40:20.555Z,95901.16
2023-05-14T15:42:54.699Z,95911.22
2023-05-14T15:45:28.239Z,95916.66
2023-05-14T15:48:01.058Z,95926.69
2023-05-14T15:50:33.964Z,95934.78
2023-05-14T15:53:06.836Z,95935.16
2023-05-14T15:55:39.615Z,95945.56
2023-05-14T15:58:13.949Z,95947.81
2023-05-14T16:00:47.397Z,95936.53
2023-05-14T16:03:20.513Z,95906.31
2023-05-14T16:05:53.544Z,95915.44
2023-05-14T16:08:26.719Z,95925.25
2023-05-14T16:11:00.135Z,95925.47
2023-05-14T16:13:38.463Z,95923.34
2023-05-14T16:16:12.154Z,95934.31
2023-05-14T16:18:45.348Z,95933.72
2023-05-14T16:21:19.088Z,95942.78
2023-05-14T16:23:52.853Z,95931.09
2023-05-14T16:26:28.257Z,95934.41
2023-05-14T16:29:03.024Z,95938.88
2023-05-14T16:31:35.810Z,95939.94
2023-05-14T16:34:09.000Z,95941.78
2023-05-14T16:36:42.497Z,95935.94
2023-05-14T16:39:16.693Z,95935.47
2023-05-14T16:41:53.069Z,95938.13
2023-05-14T16:44:29.735Z,95935.78
2023-05-14T16:47:02.846Z,95938.84
2023-05-14T16:49:36.067Z,95942.66
2023-05-14T16:52:12.265Z,95938.81
2023-05-14T16:54:45.560Z,95941.09
2023-05-14T16:57:19.162Z,95941.44
2023-05-14T16:59:55.299Z,95945.63
2023-05-14T17:02:28.729Z,95941.75
2023-05-14T17:05:04.454Z,95945.59
2023-05-14T17:07:39.310Z,95951.69
2023-05-14T17:10:12.859Z,95955.50
2023-05-14T17:13:10.902Z,95957.78
2023-05-14T17:15:47.090Z,95954.69
2023-05-14T17:18:20.939Z,95955.47
2023-05-14T17:20:54.244Z,95956.63
2023-05-14T17:23:27.190Z,95954.28
2023-05-14T17:26:00.132Z,95966.16
2023-05-14T17:28:33.594Z,95968.84
2023-05-14T17:31:08.164Z,95977.25
2023-05-14T17:33:41.142Z,95977.97
2023-05-14T17:36:14.380Z,95977.16
2023-05-14T17:38:47.610Z,95976.38
2023-05-14T17:41:20.517Z,95977.09
2023-05-14T17:43:53.857Z,95974.00
2023-05-14T17:46:28.092Z,95980.53
2023-05-14T17:49:01.037Z,95982.78
2023-05-14T17:51:34.267Z,95982.78
2023-05-14T17:54:09.270Z,95992.00
2023-05-14T17:56:50.925Z,95993.47
2023-05-14T17:59:24.570Z,95991.91
2023-05-14T18:01:59.536Z,95995.00
2023-05-14T18:04:32.476Z,96003.06
2023-05-14T18:07:06.084Z,95999.16
2023-05-14T18:09:39.540Z,96001.84
2023-05-14T18:12:12.616Z,96004.91
2023-05-14T18:14:45.855Z,96006.38
2023-05-14T18:17:21.035Z,96001.75
2023-05-14T18:19:54.194Z,95997.06
2023-05-14T18:22:27.308Z,95994.72
2023-05-14T18:25:00.559Z,95995.47
2023-05-14T18:27:33.862Z,95997.72
2023-05-14T18:30:07.504Z,95986.97
2023-05-14T18:32:42.113Z,95985.41
2023-05-14T18:35:16.272Z,95986.56
2023-05-14T18:37:49.367Z,95981.19
2023-05-14T18:40:24.587Z,95983.50
2023-05-14T18:42:59.718Z,95986.97
2023-05-14T18:45:35.354Z,95978.56
2023-05-14T18:48:10.418Z,95982.03
2023-05-14T18:50:43.906Z,95983.94
2023-05-14T18:53:16.992Z,95984.72
2023-05-14T18:55:50.401Z,95983.59
2023-05-14T18:58:23.482Z,95986.28
2023-05-14T19:00:57.876Z,95988.97
2023-05-14T19:03:32.833Z,95988.97
2023-05-14T19:06:05.825Z,95982.03
2023-05-14T19:08:39.832Z,95991.22
2023-05-14T19:11:13.358Z,95987.75
2023-05-14T19:13:48.316Z,95978.50
2023-05-14T19:16:21.704Z,95988.81
2023-05-14T19:18:56.698Z,95992.63
2023-05-14T19:21:32.681Z,95998.75
2023-05-14T19:24:06.287Z,96004.47
2023-05-14T19:26:40.870Z,96012.88
2023-05-14T19:29:18.486Z,96016.72
2023-05-14T19:31:51.932Z,96022.44
2023-05-14T19:34:27.713Z,96028.19
2023-05-14T19:37:01.307Z,96031.22
2023-05-14T19:39:34.890Z,96026.63
2023-05-14T19:42:08.277Z,96026.22
2023-05-14T19:44:41.831Z,96027.69
2023-05-14T19:47:15.161Z,96034.19
2023-05-14T19:49:50.025Z,96028.03
2023-05-14T19:52:26.069Z,96042.63
2023-05-14T19:54:59.412Z,96038.38
2023-05-14T19:57:32.938Z,96037.25
2023-05-14T20:00:08.959Z,96038.38
2023-05-14T20:02:43.630Z,96044.91
2023-05-14T20:05:19.262Z,96036.09
2023-05-14T20:07:54.168Z,96037.25
2023-05-14T20:10:27.339Z,96041.47
2023-05-14T20:13:01.182Z,96038.78
2023-05-14T20:15:37.050Z,96048.84
2023-05-14T20:18:11.161Z,96047.28
2023-05-14T20:20:49.427Z,96050.41
2023-05-14T20:23:22.973Z,96048.50
2023-05-14T20:25:56.164Z,96051.19
2023-05-14T20:28:29.939Z,96050.03
2023-05-14T20:31:04.952Z,96044.66
2023-05-14T20:33:40.794Z,96040.44
2023-05-14T20:36:15.268Z,96035.06
2023-05-14T20:38:50.105Z,96030.44
2023-05-14T20:41:23.980Z,96025.84
2023-05-14T20:43:58.007Z,96018.16
2023-05-14T20:46:30.947Z,96012.00
2023-05-14T20:49:03.846Z,96011.22
2023-05-14T20:51:38.754Z,96005.41
2023-05-14T20:54:11.580Z,96012.28
2023-05-14T20:56:46.107Z,96006.50
2023-05-14T20:59:19.638Z,96014.91
2023-05-14T21:01:54.032Z,96009.44
2023-05-14T21:04:27.128Z,96010.97
2023-05-14T21:07:02.962Z,96011.66
2023-05-14T21:09:37.387Z,96009.31
2023-05-14T21:12:12.139Z,96007.75
2023-05-14T21:14:45.965Z,96004.28
2023-05-14T21:17:20.885Z,96005.47
2023-05-14T21:19:54.654Z,96008.13
2023-05-14T21:22:29.387Z,96004.69
2023-05-14T21:25:02.893Z,95990.47
2023-05-14T21:27:36.118Z,95994.28
2023-05-14T21:30:10.244Z,95994.63
2023-05-14T21:32:43.542Z,95990.72
2023-05-14T21:35:16.917Z,95993.03
2023-05-14T21:37:51.941Z,95996.84
2023-05-14T21:40:25.182Z,95995.19
2023-05-14T21:42:58.519Z,95995.16
2023-05-14T21:45:31.728Z,95998.53
2023-05-14T21:48:04.620Z,95998.03
2023-05-14T21:50:37.773Z,95994.50
2023-05-14T21:53:11.883Z,95995.53
2023-05-14T21:55:44.689Z,95997.03
2023-05-14T21:58:17.613Z,95999.63
2023-05-14T22:00:50.433Z,95994.97
2023-05-14T22:03:23.369Z,95994.97
2023-05-14T22:05:56.666Z,95988.75
2023-05-14T22:08:31.254Z,95984.50
2023-05-14T22:11:04.188Z,95988.31
2023-05-14T22:13:40.966Z,95989.44
2023-05-14T22:16:14.296Z,95989.44
2023-05-14T22:18:47.253Z,95992.13
2023-05-14T22:21:20.149Z,95988.66
2023-05-14T22:23:54.693Z,95975.22
2023-05-14T22:26:27.391Z,95988.31
2023-05-14T22:29:00.592Z,95977.56
2023-05-14T22:31:33.497Z,95978.78
2023-05-14T22:34:06.495Z,95978.00
2023-05-14T22:36:39.677Z,95982.25
2023-05-14T22:39:13.899Z,95977.31
2023-05-14T22:41:46.778Z,95975.41
2023-05-14T22:44:19.503Z,95975.06
2023-05-14T22:46:52.375Z,95967.75
2023-05-14T22:49:25.209Z,95969.31
2023-05-14T22:51:58.172Z,95969.38
2023-05-14T22:54:32.301Z,95974.41
2023-05-14T22:57:05.241Z,95975.97
2023-05-14T22:59:39.465Z,95964.84
2023-05-14T23:02:12.262Z,95969.09
2023-05-14T23:04:45.028Z,95965.28
2023-05-14T23:07:18.540Z,95968.78
2023-05-14T23:09:52.683Z,95978.03
2023-05-14T23:12:25.344Z,95968.41
2023-05-14T23:14:59.183Z,95979.59
2023-05-14T23:17:32.261Z,95967.72
2023-05-14T23:20:06.251Z,95970.41
2023-05-14T23:22:38.867Z,95978.88
2023-05-14T23:25:14.213Z,95980.44
2023-05-14T23:27:46.922Z,95978.53
2023-05-14T23:30:19.567Z,95976.59
2023-05-14T23:32:52.426Z,95975.84
2023-05-14T23:35:25.322Z,95965.09
2023-05-14T23:37:58.123Z,95964.31
2023-05-14T23:40:32.301Z,95962.41
2023-05-14T23:43:05.353Z,95968.56
2023-05-14T23:45:37.977Z,95961.97
2023-05-14T23:48:10.871Z,95961.63
2023-05-14T23:50:43.944Z,95964.75
2023-05-14T23:53:16.689Z,95954.34
2023-05-14T23:55:51.126Z,95955.91
2023-05-14T23:58:24.057Z,95947.06
